Bauerfield Efate, Vanuatu

3:55 PM VUT on January 19, 2017 (GMT +1100)
Bauerfield | | Change Station

Elev 69 ft 17.70 °S, 168.30 °E | Updated 55 minutes ago

Partly Cloudy
Partly Cloudy
86 °F
Feels Like 93 °F
N
9
Wind Variable Wind from SSE

Today
High -- | Low -- °F
--% Chance of Precip.
Yesterday
High -- | Low -- °F
Precip. -- in
Pressure 29.71 in
Visibility 6.2 miles
Clouds Few 2500 ft
Scattered Clouds 4500 ft
Heat Index 93 °F
Dew Point 73 °F
Humidity 66%
Rainfall 0.00 in
Snow Depth Not available.
5:26 AM 6:28 PM
Waning Gibbous, 57% visible
METAR NVVV 190400Z 16008KT 9999 FEW025 SCT045 30/23 Q1006 RMK NIL
Pressure 29.71 in
Visibility 6.2 miles
Clouds Few 2500 ft
Scattered Clouds 4500 ft
Heat Index 93 °F
Dew Point 73 °F
Humidity 66%
Rainfall 0.00 in
Snow Depth Not available.
5:26 AM 6:28 PM
Waning Gibbous, 57% visible
METAR NVVV 190400Z 16008KT 9999 FEW025 SCT045 30/23 Q1006 RMK NIL

Get Your Daily Forecast Email!

Thanks for signing up!

Be on the lookout for a verification email in your inbox.

You'll start receiving the daily forecast at 8 AM.

×

10-Day Weather Forecast

×

Almanac

Astronomy

Jan. 19, 2017 Rise Set
Actual Time
Civil Twilight
Nautical Twilight
Astronomical Twilight
Moon
Length of Visible Light
Length of Day
Tomorrow will be .
, % of the Moon is Illuminated

Today's Extremes

Country Highs Country Lows

Community

WunderPhotos

Upload Photos

1,962,540 photos uploaded!

WunderBlog® & News

Nearby

Air Quality

  Air Quality AQ Index Pollutant
Not available.

Snow Depth

Station Depth Elevation

Earthquake Activity

City Distance Mag. Time & Date
Minimum magnitude displayed is 2.5.

Coastal Water Temperatures

Place Temperature

Stations

Nearby Weather Stations

Station Location Temp. Windchill Dew Point Humidity Wind Precip. Elev Updated Type